createdAt,value
2022-08-17T00:00:18.254Z,63.71
2022-08-17T00:06:02.910Z,64.05
2022-08-17T00:11:14.517Z,64.68
2022-08-17T00:16:55.414Z,65.27
2022-08-17T00:22:32.814Z,65.31
2022-08-17T00:27:21.895Z,65.06
2022-08-17T00:33:12.357Z,65.48
2022-08-17T00:37:48.690Z,65.64
2022-08-17T00:42:53.599Z,65.46
2022-08-17T00:47:56.959Z,65.87
2022-08-17T00:53:00.875Z,66.04
2022-08-17T00:58:06.542Z,66.85
2022-08-17T01:03:19.887Z,67.25
2022-08-17T01:08:27.375Z,67.72
2022-08-17T01:13:43.409Z,67.77
2022-08-17T01:18:50.917Z,67.94
2022-08-17T01:23:54.432Z,68.68
2022-08-17T01:28:58.100Z,68.97
2022-08-17T01:34:03.666Z,69.25
2022-08-17T01:39:12.176Z,69.00
2022-08-17T01:44:17.095Z,69.22
2022-08-17T01:49:20.415Z,69.09
2022-08-17T01:54:25.971Z,69.34
2022-08-17T01:59:29.281Z,69.45
2022-08-17T02:04:32.541Z,69.59
2022-08-17T02:09:35.801Z,69.67
2022-08-17T02:14:44.949Z,69.96
2022-08-17T02:19:48.053Z,70.10
2022-08-17T02:25:00.815Z,70.20
2022-08-17T02:30:59.531Z,70.43
2022-08-17T02:35:32.296Z,70.63
2022-08-17T02:40:37.621Z,70.77
2022-08-17T02:45:41.064Z,70.90
2022-08-17T02:50:44.373Z,71.13
2022-08-17T02:55:47.685Z,71.39
2022-08-17T03:00:50.996Z,71.56
2022-08-17T03:05:54.306Z,71.52
2022-08-17T03:10:58.136Z,71.57
2022-08-17T03:16:01.647Z,71.86
2022-08-17T03:21:05.165Z,71.97
2022-08-17T03:26:12.345Z,72.07
2022-08-17T03:31:19.057Z,72.53
2022-08-17T03:36:22.673Z,72.47
2022-08-17T03:41:25.777Z,72.54
2022-08-17T03:46:47.828Z,72.71
2022-08-17T03:52:10.391Z,72.81
2022-08-17T03:57:14.121Z,72.88
2022-08-17T04:02:28.896Z,73.46
2022-08-17T04:07:32.210Z,73.34
2022-08-17T04:12:55.071Z,73.56
2022-08-17T04:17:58.382Z,73.98
2022-08-17T04:23:11.935Z,73.87
2022-08-17T04:28:16.508Z,74.10
2022-08-17T04:33:25.126Z,74.24
2022-08-17T04:38:32.148Z,74.00
2022-08-17T04:43:38.079Z,74.23
2022-08-17T04:48:45.130Z,74.53
2022-08-17T04:53:54.445Z,74.76
2022-08-17T04:59:01.726Z,74.86
2022-08-17T05:04:21.034Z,74.93
2022-08-17T05:09:32.931Z,75.08
2022-08-17T05:14:39.323Z,75.07
2022-08-17T05:19:42.626Z,75.01
2022-08-17T05:24:53.710Z,74.92
2022-08-17T05:29:57.441Z,74.83
2022-08-17T05:35:01.000Z,74.73
2022-08-17T05:40:04.565Z,74.57
2022-08-17T05:45:08.969Z,74.30
2022-08-17T05:50:29.903Z,74.15
2022-08-17T05:56:29.226Z,73.98
2022-08-17T06:02:04.523Z,73.78
2022-08-17T06:07:24.522Z,73.53
2022-08-17T06:12:46.190Z,72.75
2022-08-17T06:18:13.805Z,72.73
2022-08-17T06:23:31.324Z,71.99
2022-08-17T06:28:41.666Z,71.36
2022-08-17T06:33:47.944Z,71.42
2022-08-17T06:39:38.091Z,70.72
2022-08-17T06:44:51.491Z,70.62
2022-08-17T06:50:16.930Z,70.15
2022-08-17T06:55:45.533Z,69.55
2022-08-17T07:00:56.710Z,69.27
2022-08-17T07:06:09.359Z,68.97
2022-08-17T07:11:17.043Z,68.67
2022-08-17T07:16:31.548Z,68.16
2022-08-17T07:22:14.388Z,67.89
2022-08-17T07:27:36.247Z,67.68
2022-08-17T07:32:46.297Z,67.79
2022-08-17T07:37:55.833Z,67.04
2022-08-17T07:43:23.009Z,67.17
2022-08-17T07:48:27.927Z,67.02
2022-08-17T07:53:32.315Z,67.04
2022-08-17T07:58:35.723Z,66.79
2022-08-17T08:03:44.722Z,66.59
2022-08-17T08:08:56.107Z,66.64
2022-08-17T08:14:28.647Z,66.42
2022-08-17T08:19:33.204Z,66.22
2022-08-17T08:24:45.733Z,65.72
2022-08-17T08:29:54.571Z,65.44
2022-08-17T08:35:13.449Z,64.69
2022-08-17T08:40:22.698Z,64.33
2022-08-17T08:45:33.381Z,64.10
2022-08-17T08:50:43.660Z,63.30
2022-08-17T08:56:01.508Z,63.31
2022-08-17T09:01:17.656Z,62.86
2022-08-17T09:06:59.534Z,61.55
2022-08-17T09:12:17.082Z,60.98
2022-08-17T09:17:40.772Z,60.93
2022-08-17T09:22:51.043Z,59.58
2022-08-17T09:28:19.497Z,58.31
2022-08-17T09:33:27.947Z,57.50
2022-08-17T09:38:54.222Z,57.06
2022-08-17T09:44:10.732Z,56.63
2022-08-17T09:49:47.137Z,55.14
2022-08-17T09:54:52.574Z,54.06
2022-08-17T10:00:03.377Z,53.46
2022-08-17T10:05:22.152Z,52.10
2022-08-17T10:10:33.346Z,52.14
2022-08-17T10:15:42.705Z,51.78
2022-08-17T10:21:20.110Z,51.41
2022-08-17T10:26:26.805Z,51.07
2022-08-17T10:31:52.332Z,50.32
2022-08-17T10:37:38.959Z,48.80
2022-08-17T10:43:00.908Z,48.91
2022-08-17T10:48:07.482Z,48.08
2022-08-17T10:53:11.114Z,48.10
2022-08-17T10:58:22.253Z,46.62
2022-08-17T11:03:26.722Z,46.29
2022-08-17T11:08:36.614Z,45.82
2022-08-17T11:13:59.581Z,45.25
2022-08-17T11:19:40.164Z,43.13
2022-08-17T11:24:48.049Z,42.40
2022-08-17T11:30:00.949Z,42.86
2022-08-17T11:35:12.429Z,42.94
2022-08-17T11:40:34.473Z,41.83
2022-08-17T11:46:11.495Z,40.56
2022-08-17T11:51:35.983Z,40.50
2022-08-17T11:56:41.543Z,40.90
2022-08-17T12:01:56.921Z,40.34
2022-08-17T12:07:17.453Z,40.68
2022-08-17T12:12:38.275Z,40.29
2022-08-17T12:17:42.865Z,39.56
2022-08-17T12:23:15.514Z,39.16
2022-08-17T12:28:33.058Z,39.44
2022-08-17T12:33:42.719Z,38.95
2022-08-17T12:39:13.297Z,38.54
2022-08-17T12:44:23.544Z,38.31
2022-08-17T12:49:30.029Z,38.63
2022-08-17T12:54:42.377Z,39.11
2022-08-17T12:59:50.885Z,38.47
2022-08-17T13:04:57.055Z,39.09
2022-08-17T13:10:00.373Z,38.42
2022-08-17T13:15:04.577Z,37.71
2022-08-17T13:20:15.344Z,37.88
2022-08-17T13:25:19.135Z,37.59
2022-08-17T13:30:29.454Z,37.97
2022-08-17T13:35:50.290Z,37.45
2022-08-17T13:40:54.134Z,37.45
2022-08-17T13:46:13.007Z,37.69
2022-08-17T13:51:25.127Z,37.93
2022-08-17T13:56:41.032Z,37.89
2022-08-17T14:01:52.794Z,37.28
2022-08-17T14:07:15.815Z,36.83
2022-08-17T14:12:24.706Z,35.14
2022-08-17T14:17:31.024Z,31.16
2022-08-17T14:22:38.939Z,28.78
2022-08-17T14:27:52.864Z,30.74
2022-08-17T14:32:58.350Z,32.00
2022-08-17T14:38:06.297Z,32.97
2022-08-17T14:43:09.611Z,33.95
2022-08-17T14:48:13.023Z,34.48
2022-08-17T14:53:16.848Z,34.53
2022-08-17T14:58:20.363Z,34.80
2022-08-17T15:03:23.877Z,35.16
2022-08-17T15:08:28.730Z,35.41
2022-08-17T15:13:32.241Z,35.54
2022-08-17T15:18:36.936Z,35.57
2022-08-17T15:23:40.299Z,36.22
2022-08-17T15:28:48.986Z,36.24
2022-08-17T15:33:58.899Z,35.96
2022-08-17T15:39:03.438Z,35.55
2022-08-17T15:44:06.752Z,35.22
2022-08-17T15:49:09.962Z,35.27
2022-08-17T15:54:19.172Z,35.30
2022-08-17T15:59:26.419Z,35.29
2022-08-17T16:04:31.805Z,34.99
2022-08-17T16:09:35.489Z,34.96
2022-08-17T16:14:39.108Z,31.84
2022-08-17T16:19:42.418Z,29.90
2022-08-17T16:24:57.078Z,28.93
2022-08-17T16:30:01.432Z,26.93
2022-08-17T16:35:09.080Z,27.01
2022-08-17T16:40:13.447Z,27.06
2022-08-17T16:45:20.142Z,27.88
2022-08-17T16:50:24.305Z,28.70
2022-08-17T16:55:27.716Z,29.65
2022-08-17T17:00:32.012Z,30.42
2022-08-17T17:05:44.475Z,31.11
2022-08-17T17:10:56.172Z,32.04
2022-08-17T17:16:24.478Z,32.83
2022-08-17T17:21:42.729Z,33.64
2022-08-17T17:27:00.819Z,34.51
2022-08-17T17:32:25.513Z,35.01
2022-08-17T17:37:34.345Z,35.62
2022-08-17T17:42:40.940Z,36.16
2022-08-17T17:47:45.147Z,36.59
2022-08-17T17:53:04.456Z,36.99
2022-08-17T17:58:18.237Z,37.83
2022-08-17T18:03:59.620Z,38.14
2022-08-17T18:09:40.922Z,38.73
2022-08-17T18:15:12.188Z,39.30
2022-08-17T18:20:37.126Z,39.78
2022-08-17T18:25:53.722Z,40.41
2022-08-17T18:31:16.698Z,41.05
2022-08-17T18:36:29.529Z,41.54
2022-08-17T18:41:44.205Z,42.20
2022-08-17T18:46:47.458Z,42.53
2022-08-17T18:52:14.191Z,43.24
2022-08-17T18:57:31.811Z,43.70
2022-08-17T19:02:45.211Z,44.10
2022-08-17T19:07:49.835Z,44.57
2022-08-17T19:12:58.450Z,45.21
2022-08-17T19:18:15.558Z,45.68
2022-08-17T19:23:29.749Z,45.86
2022-08-17T19:28:39.417Z,46.27
2022-08-17T19:33:47.854Z,46.89
2022-08-17T19:38:54.541Z,47.36
2022-08-17T19:44:19.549Z,47.77
2022-08-17T19:49:41.700Z,47.93
2022-08-17T19:55:01.907Z,48.57
2022-08-17T20:00:19.612Z,48.99
2022-08-17T20:05:31.159Z,49.90
2022-08-17T20:10:54.963Z,50.31
2022-08-17T20:15:58.876Z,50.91
2022-08-17T20:21:19.946Z,51.47
2022-08-17T20:26:49.106Z,51.97
2022-08-17T20:31:58.782Z,52.41
2022-08-17T20:37:08.716Z,52.51
2022-08-17T20:42:34.127Z,52.83
2022-08-17T20:47:50.621Z,53.41
2022-08-17T20:53:10.293Z,54.04
2022-08-17T20:58:15.652Z,54.67
2022-08-17T21:03:24.597Z,54.98
2022-08-17T21:08:36.199Z,55.07
2022-08-17T21:14:02.140Z,55.44
2022-08-17T21:19:23.575Z,55.78
2022-08-17T21:24:43.887Z,56.34
2022-08-17T21:30:06.580Z,56.67
2022-08-17T21:35:22.456Z,57.14
2022-08-17T21:40:31.297Z,57.40
2022-08-17T21:45:39.007Z,57.74
2022-08-17T21:50:46.293Z,58.39
2022-08-17T21:55:52.465Z,58.69
2022-08-17T22:01:22.058Z,59.22
2022-08-17T22:06:30.347Z,59.54
2022-08-17T22:12:02.332Z,59.85
2022-08-17T22:17:30.320Z,60.05
2022-08-17T22:23:18.995Z,60.55
2022-08-17T22:28:40.943Z,60.93
2022-08-17T22:33:48.454Z,61.37
2022-08-17T22:38:56.172Z,61.41
2022-08-17T22:44:09.104Z,61.80
2022-08-17T22:49:12.413Z,62.08
2022-08-17T22:54:37.432Z,62.37
2022-08-17T22:59:49.141Z,62.64
2022-08-17T23:05:17.034Z,62.83
2022-08-17T23:10:20.245Z,63.08
2022-08-17T23:15:27.543Z,63.27
2022-08-17T23:20:34.542Z,63.76
2022-08-17T23:25:38.569Z,64.23
2022-08-17T23:30:44.440Z,64.32
2022-08-17T23:35:48.160Z,64.21
2022-08-17T23:40:51.263Z,64.43
2022-08-17T23:45:57.677Z,64.52
2022-08-17T23:51:04.324Z,64.74
2022-08-17T23:56:11.499Z,64.96
